createdAt,value
2018-07-26T00:00:58.511Z,5.60
2018-07-26T00:03:29.571Z,5.35
2018-07-26T00:05:58.844Z,5.60
2018-07-26T00:08:28.498Z,5.78
2018-07-26T00:10:57.964Z,6.12
2018-07-26T00:13:27.028Z,6.12
2018-07-26T00:15:56.283Z,5.90
2018-07-26T00:18:25.029Z,6.85
2018-07-26T00:20:53.952Z,6.25
2018-07-26T00:23:23.223Z,6.70
2018-07-26T00:25:52.453Z,7.05
2018-07-26T00:28:21.519Z,6.83
2018-07-26T00:30:50.483Z,6.62
2018-07-26T00:33:24.059Z,6.97
2018-07-26T00:35:53.267Z,6.80
2018-07-26T00:38:22.863Z,6.67
2018-07-26T00:40:52.412Z,6.60
2018-07-26T00:43:21.607Z,6.75
2018-07-26T00:45:50.713Z,6.78
2018-07-26T00:48:19.708Z,7.92
2018-07-26T00:50:48.620Z,6.67
2018-07-26T00:53:17.849Z,7.20
2018-07-26T00:55:47.114Z,7.37
2018-07-26T00:58:15.986Z,6.75
2018-07-26T01:00:46.250Z,6.75
2018-07-26T01:03:15.347Z,6.50
2018-07-26T01:05:44.384Z,7.78
2018-07-26T01:08:13.627Z,6.95
2018-07-26T01:10:42.725Z,7.42
2018-07-26T01:13:12.164Z,7.37
2018-07-26T01:15:41.563Z,7.40
2018-07-26T01:18:11.360Z,7.03
2018-07-26T01:20:40.272Z,6.62
2018-07-26T01:23:09.327Z,7.22
2018-07-26T01:25:39.512Z,7.40
2018-07-26T01:28:09.283Z,6.97
2018-07-26T01:30:39.180Z,7.53
2018-07-26T01:33:08.419Z,7.62
2018-07-26T01:35:37.641Z,7.70
2018-07-26T01:38:06.931Z,7.70
2018-07-26T01:40:36.293Z,8.03
2018-07-26T01:43:10.523Z,8.15
2018-07-26T01:45:39.531Z,8.25
2018-07-26T01:48:09.496Z,8.10
2018-07-26T01:50:38.628Z,7.37
2018-07-26T01:53:07.803Z,7.30
2018-07-26T01:55:36.921Z,8.13
2018-07-26T01:58:05.628Z,8.25
2018-07-26T02:00:34.831Z,7.87
2018-07-26T02:03:03.987Z,7.75
2018-07-26T02:05:33.444Z,7.62
2018-07-26T02:08:02.912Z,7.47
2018-07-26T02:10:33.824Z,7.78
2018-07-26T02:13:03.633Z,8.15
2018-07-26T02:15:33.032Z,7.95
2018-07-26T02:18:02.302Z,8.65
2018-07-26T02:20:31.248Z,8.13
2018-07-26T02:23:00.912Z,8.10
2018-07-26T02:25:29.856Z,7.53
2018-07-26T02:27:59.728Z,8.08
2018-07-26T02:30:28.891Z,8.10
2018-07-26T02:32:57.920Z,7.67
2018-07-26T02:35:26.843Z,8.10
2018-07-26T02:37:56.155Z,8.13
2018-07-26T02:40:25.476Z,8.08
2018-07-26T02:42:54.675Z,8.48
2018-07-26T02:45:23.800Z,8.43
2018-07-26T02:47:52.692Z,8.05
2018-07-26T02:50:22.011Z,8.30
2018-07-26T02:52:51.036Z,8.37
2018-07-26T02:55:20.104Z,7.50
2018-07-26T02:57:49.283Z,8.13
2018-07-26T03:00:18.696Z,8.20
2018-07-26T03:02:47.874Z,8.40
2018-07-26T03:05:17.480Z,8.28
2018-07-26T03:07:46.407Z,8.73
2018-07-26T03:10:15.979Z,8.13
2018-07-26T03:12:45.508Z,8.33
2018-07-26T03:15:14.592Z,8.28
2018-07-26T03:17:43.652Z,8.48
2018-07-26T03:20:14.284Z,7.80
2018-07-26T03:22:43.508Z,7.10
2018-07-26T03:25:12.380Z,8.37
2018-07-26T03:27:41.815Z,8.23
2018-07-26T03:30:10.699Z,7.55
2018-07-26T03:32:39.997Z,8.00
2018-07-26T03:35:08.572Z,8.13
2018-07-26T03:37:37.421Z,8.23
2018-07-26T03:40:06.676Z,7.62
2018-07-26T03:42:36.031Z,7.92
2018-07-26T03:45:05.949Z,7.42
2018-07-26T03:47:34.523Z,7.40
2018-07-26T03:50:03.746Z,7.47
2018-07-26T03:52:32.730Z,6.93
2018-07-26T03:55:02.144Z,7.22
2018-07-26T03:57:32.168Z,7.22
2018-07-26T04:00:01.408Z,7.37
2018-07-26T04:02:30.284Z,8.15
2018-07-26T04:05:00.237Z,7.42
2018-07-26T04:07:29.132Z,7.45
2018-07-26T04:09:58.676Z,6.50
2018-07-26T04:12:28.617Z,7.58
2018-07-26T04:14:57.340Z,7.17
2018-07-26T04:17:26.295Z,7.20
2018-07-26T04:19:56.184Z,6.37
2018-07-26T04:22:25.842Z,7.45
2018-07-26T04:24:54.383Z,7.15
2018-07-26T04:27:23.632Z,6.85
2018-07-26T04:29:52.824Z,6.90
2018-07-26T04:32:22.083Z,6.10
2018-07-26T04:34:50.892Z,6.42
2018-07-26T04:37:19.621Z,6.60
2018-07-26T04:39:48.848Z,6.15
2018-07-26T04:42:18.120Z,5.40
2018-07-26T04:44:47.324Z,6.20
2018-07-26T04:47:16.590Z,5.65
2018-07-26T04:49:45.720Z,5.85
2018-07-26T04:52:15.472Z,5.12
2018-07-26T04:54:44.773Z,5.10
2018-07-26T04:57:14.207Z,5.03
2018-07-26T04:59:43.760Z,5.70
2018-07-26T05:02:12.940Z,4.83
2018-07-26T05:04:41.924Z,5.12
2018-07-26T05:07:11.255Z,4.95
2018-07-26T05:09:40.157Z,4.65
2018-07-26T05:12:09.412Z,5.08
2018-07-26T05:14:38.369Z,4.30
2018-07-26T05:17:07.153Z,4.95
2018-07-26T05:19:36.508Z,4.28
2018-07-26T05:22:05.157Z,4.35
2018-07-26T05:24:34.752Z,4.45
2018-07-26T05:27:04.696Z,4.53
2018-07-26T05:29:33.544Z,4.10
2018-07-26T05:32:02.429Z,4.15
2018-07-26T05:34:31.644Z,4.12
2018-07-26T05:37:00.450Z,4.47
2018-07-26T05:39:30.637Z,4.28
2018-07-26T05:42:01.058Z,4.00
2018-07-26T05:44:30.024Z,4.03
2018-07-26T05:46:59.811Z,3.77
2018-07-26T05:49:29.655Z,4.15
2018-07-26T05:52:02.349Z,3.98
2018-07-26T05:54:31.175Z,4.03
2018-07-26T05:57:00.236Z,3.70
2018-07-26T05:59:29.095Z,3.67
2018-07-26T06:01:58.249Z,3.87
2018-07-26T06:04:27.460Z,3.80
2018-07-26T06:06:56.575Z,3.72
2018-07-26T06:09:26.459Z,3.92
2018-07-26T06:11:55.460Z,3.70
2018-07-26T06:14:24.496Z,3.75
2018-07-26T06:16:54.048Z,3.92
2018-07-26T06:19:23.348Z,3.80
2018-07-26T06:21:53.102Z,3.75
2018-07-26T06:24:22.256Z,3.67
2018-07-26T06:26:51.208Z,3.33
2018-07-26T06:29:20.247Z,3.83
2018-07-26T06:31:48.936Z,3.30
2018-07-26T06:34:18.065Z,3.70
2018-07-26T06:36:47.481Z,3.35
2018-07-26T06:39:16.428Z,3.55
2018-07-26T06:41:45.603Z,3.55
2018-07-26T06:44:15.344Z,3.65
2018-07-26T06:46:44.879Z,3.62
2018-07-26T06:49:14.087Z,3.47
2018-07-26T06:51:43.076Z,3.65
2018-07-26T06:54:12.025Z,3.20
2018-07-26T06:56:40.959Z,3.37
2018-07-26T06:59:10.624Z,3.72
2018-07-26T07:01:39.836Z,3.55
2018-07-26T07:04:09.507Z,3.58
2018-07-26T07:06:38.440Z,4.00
2018-07-26T07:09:08.284Z,3.62
2018-07-26T07:11:38.239Z,3.60
2018-07-26T07:14:07.860Z,3.33
2018-07-26T07:16:36.984Z,3.75
2018-07-26T07:19:06.200Z,3.70
2018-07-26T07:21:34.899Z,3.70
2018-07-26T07:24:03.848Z,3.42
2018-07-26T07:26:33.812Z,3.62
2018-07-26T07:29:02.652Z,3.87
2018-07-26T07:31:32.413Z,3.25
2018-07-26T07:34:01.749Z,3.92
2018-07-26T07:36:31.215Z,3.62
2018-07-26T07:39:00.907Z,3.25
2018-07-26T07:41:30.253Z,3.50
2018-07-26T07:43:59.172Z,3.37
2018-07-26T07:46:28.537Z,3.67
2018-07-26T07:48:57.378Z,3.72
2018-07-26T07:51:26.410Z,3.25
2018-07-26T07:53:55.057Z,3.35
2018-07-26T07:56:23.875Z,3.75
2018-07-26T07:58:53.996Z,2.85
2018-07-26T08:01:22.723Z,3.27
2018-07-26T08:03:51.735Z,3.20
2018-07-26T08:06:21.105Z,3.60
2018-07-26T08:08:50.683Z,3.45
2018-07-26T08:11:19.995Z,3.37
2018-07-26T08:13:50.448Z,3.55
2018-07-26T08:16:19.563Z,3.00
2018-07-26T08:18:48.740Z,3.33
2018-07-26T08:21:17.863Z,3.55
2018-07-26T08:23:47.468Z,2.98
2018-07-26T08:26:16.730Z,3.35
2018-07-26T08:28:45.444Z,2.80
2018-07-26T08:31:15.067Z,3.12
2018-07-26T08:33:44.343Z,3.30
2018-07-26T08:36:14.094Z,3.50
2018-07-26T08:38:44.111Z,2.90
2018-07-26T08:41:13.545Z,3.50
2018-07-26T08:43:44.167Z,3.10
2018-07-26T08:46:13.527Z,3.20
2018-07-26T08:48:42.378Z,3.22
2018-07-26T08:51:11.433Z,2.75
2018-07-26T08:53:44.388Z,3.17
2018-07-26T08:56:13.711Z,3.12
2018-07-26T08:58:43.119Z,3.50
2018-07-26T09:01:13.303Z,3.10
2018-07-26T09:03:41.955Z,3.08
2018-07-26T09:06:12.392Z,3.12
2018-07-26T09:08:41.691Z,2.85
2018-07-26T09:11:11.016Z,2.80
2018-07-26T09:13:40.061Z,3.22
2018-07-26T09:16:09.255Z,2.70
2018-07-26T09:18:38.378Z,3.10
2018-07-26T09:21:07.292Z,2.98
2018-07-26T09:23:36.112Z,2.75
2018-07-26T09:26:05.750Z,2.75
2018-07-26T09:28:34.892Z,3.20
2018-07-26T09:31:04.144Z,2.80
2018-07-26T09:33:33.204Z,3.00
2018-07-26T09:36:02.615Z,2.90
2018-07-26T09:38:32.511Z,3.20
2018-07-26T09:41:01.562Z,2.67
2018-07-26T09:43:31.009Z,2.92
2018-07-26T09:46:00.287Z,2.60
2018-07-26T09:48:29.245Z,3.15
2018-07-26T09:50:58.773Z,3.10
2018-07-26T09:53:27.471Z,3.05
2018-07-26T09:55:56.404Z,2.87
2018-07-26T09:58:25.349Z,3.00
2018-07-26T10:00:59.530Z,3.08
2018-07-26T10:03:29.019Z,3.02
2018-07-26T10:05:58.468Z,2.83
2018-07-26T10:08:27.548Z,3.12
2018-07-26T10:10:57.049Z,3.33
2018-07-26T10:13:25.959Z,3.02
2018-07-26T10:15:54.897Z,3.27
2018-07-26T10:18:23.751Z,3.22
2018-07-26T10:20:52.684Z,3.22
2018-07-26T10:23:21.248Z,3.08
2018-07-26T10:25:50.207Z,3.45
2018-07-26T10:28:19.005Z,3.10
2018-07-26T10:30:48.315Z,3.25
2018-07-26T10:33:17.187Z,3.35
2018-07-26T10:35:46.096Z,3.40
2018-07-26T10:38:15.269Z,3.30
2018-07-26T10:40:44.604Z,3.27
2018-07-26T10:43:13.455Z,3.17
2018-07-26T10:45:42.367Z,3.65
2018-07-26T10:48:11.955Z,3.30
2018-07-26T10:50:41.412Z,3.17
2018-07-26T10:53:10.123Z,3.60
2018-07-26T10:55:39.489Z,3.75
2018-07-26T10:58:09.118Z,4.67
2018-07-26T11:00:39.189Z,5.25
2018-07-26T11:03:11.479Z,5.92
2018-07-26T11:05:40.579Z,5.00
2018-07-26T11:08:09.804Z,4.90
2018-07-26T11:10:38.723Z,5.37
2018-07-26T11:13:07.811Z,4.42
2018-07-26T11:15:37.785Z,6.22
2018-07-26T11:18:06.784Z,6.37
2018-07-26T11:20:36.867Z,6.97
2018-07-26T11:23:05.599Z,6.58
2018-07-26T11:25:34.561Z,6.85
2018-07-26T11:28:03.376Z,6.90
2018-07-26T11:30:32.588Z,5.65
2018-07-26T11:33:02.192Z,5.72
2018-07-26T11:35:31.614Z,7.17
2018-07-26T11:38:00.385Z,6.85
2018-07-26T11:40:29.659Z,6.55
2018-07-26T11:42:58.474Z,7.03
2018-07-26T11:45:27.211Z,5.62
2018-07-26T11:47:56.136Z,6.15
2018-07-26T11:50:28.695Z,5.33
2018-07-26T11:52:58.697Z,4.67
2018-07-26T11:55:27.500Z,5.62
2018-07-26T11:57:57.471Z,4.55
2018-07-26T12:00:26.799Z,4.22
2018-07-26T12:02:55.620Z,4.00
2018-07-26T12:05:24.248Z,3.50
2018-07-26T12:07:53.222Z,3.72
2018-07-26T12:10:22.584Z,3.75
2018-07-26T12:12:51.913Z,3.92
2018-07-26T12:15:20.317Z,3.83
2018-07-26T12:17:49.528Z,3.90
2018-07-26T12:20:18.333Z,3.92
2018-07-26T12:22:47.745Z,3.83
2018-07-26T12:25:17.236Z,3.72
2018-07-26T12:27:46.238Z,3.83
2018-07-26T12:30:15.340Z,3.95
2018-07-26T12:32:44.064Z,3.50
2018-07-26T12:35:13.728Z,4.05
2018-07-26T12:37:42.691Z,3.45
2018-07-26T12:40:12.340Z,3.95
2018-07-26T12:42:41.359Z,3.70
2018-07-26T12:45:10.424Z,6.37
2018-07-26T12:47:39.698Z,4.40
2018-07-26T12:50:08.448Z,4.25
2018-07-26T12:52:36.863Z,4.03
2018-07-26T12:55:05.899Z,3.77
2018-07-26T12:57:34.499Z,4.08
2018-07-26T13:00:03.332Z,3.90
2018-07-26T13:02:32.585Z,3.87
2018-07-26T13:05:01.546Z,3.37
2018-07-26T13:07:30.751Z,3.22
2018-07-26T13:09:59.789Z,3.40
2018-07-26T13:12:28.564Z,3.37
2018-07-26T13:14:57.491Z,3.77
2018-07-26T13:17:27.171Z,3.65
2018-07-26T13:19:55.767Z,3.62
2018-07-26T13:22:24.548Z,3.85
2018-07-26T13:24:53.521Z,3.80
2018-07-26T13:27:23.417Z,3.90
2018-07-26T13:29:52.333Z,3.42
2018-07-26T13:32:20.960Z,3.77
2018-07-26T13:34:50.111Z,3.92
2018-07-26T13:37:19.091Z,3.77
2018-07-26T13:39:48.347Z,3.90
2018-07-26T13:42:17.499Z,3.47
2018-07-26T13:44:46.077Z,4.10
2018-07-26T13:47:15.049Z,3.65
2018-07-26T13:49:44.220Z,3.65
2018-07-26T13:52:13.358Z,4.45
2018-07-26T13:54:42.377Z,3.80
2018-07-26T13:57:12.020Z,3.65
2018-07-26T13:59:40.968Z,3.90
2018-07-26T14:02:10.459Z,3.67
2018-07-26T14:04:39.011Z,3.75
2018-07-26T14:07:07.799Z,3.67
2018-07-26T14:09:36.611Z,3.72
2018-07-26T14:12:05.267Z,3.75
2018-07-26T14:14:34.121Z,3.87
2018-07-26T14:17:03.280Z,3.72
2018-07-26T14:19:32.075Z,3.72
2018-07-26T14:22:00.764Z,4.00
2018-07-26T14:24:29.706Z,3.90
2018-07-26T14:26:58.391Z,3.70
2018-07-26T14:29:27.237Z,3.70
2018-07-26T14:31:56.124Z,3.77
2018-07-26T14:34:24.797Z,3.60
2018-07-26T14:36:53.807Z,3.90
2018-07-26T14:39:23.494Z,3.60
2018-07-26T14:41:53.157Z,3.60
2018-07-26T14:44:22.104Z,3.22
2018-07-26T14:46:51.820Z,3.30
2018-07-26T14:49:20.852Z,3.70
2018-07-26T14:51:50.085Z,3.80
2018-07-26T14:54:18.876Z,3.37
2018-07-26T14:56:48.311Z,3.62
2018-07-26T14:59:17.230Z,3.52
2018-07-26T15:01:45.923Z,3.60
2018-07-26T15:04:15.152Z,3.55
2018-07-26T15:06:43.831Z,3.72
2018-07-26T15:09:12.464Z,3.17
2018-07-26T15:11:42.421Z,3.55
2018-07-26T15:14:12.466Z,3.47
2018-07-26T15:16:41.562Z,3.20
2018-07-26T15:19:10.592Z,3.60
2018-07-26T15:21:39.691Z,3.60
2018-07-26T15:24:08.224Z,3.67
2018-07-26T15:26:37.292Z,3.42
2018-07-26T15:29:06.657Z,3.35
2018-07-26T15:31:37.074Z,3.12
2018-07-26T15:34:06.503Z,2.95
2018-07-26T15:36:35.933Z,3.10
2018-07-26T15:39:07.125Z,3.33
2018-07-26T15:41:36.450Z,3.17
2018-07-26T15:44:06.591Z,3.02
2018-07-26T15:46:35.541Z,3.30
2018-07-26T15:49:09.922Z,3.20
2018-07-26T15:51:39.544Z,3.52
2018-07-26T15:54:08.495Z,3.40
2018-07-26T15:56:38.745Z,2.95
2018-07-26T15:59:08.010Z,3.33
2018-07-26T16:01:38.187Z,3.40
2018-07-26T16:04:07.325Z,3.40
2018-07-26T16:06:36.997Z,3.08
2018-07-26T16:09:07.723Z,3.12
2018-07-26T16:11:36.351Z,3.58
2018-07-26T16:14:05.565Z,3.40
2018-07-26T16:16:34.555Z,3.10
2018-07-26T16:19:04.653Z,3.33
2018-07-26T16:21:33.635Z,3.08
2018-07-26T16:24:02.899Z,3.05
2018-07-26T16:26:32.036Z,3.02
2018-07-26T16:29:01.144Z,2.80
2018-07-26T16:31:30.564Z,3.17
2018-07-26T16:33:59.872Z,3.37
2018-07-26T16:36:29.548Z,3.15
2018-07-26T16:38:58.340Z,3.20
2018-07-26T16:41:27.304Z,3.10
2018-07-26T16:43:56.025Z,2.83
2018-07-26T16:46:25.480Z,3.17
2018-07-26T16:48:55.222Z,3.08
2018-07-26T16:51:23.943Z,2.90
2018-07-26T16:53:52.914Z,3.20
2018-07-26T16:56:22.652Z,3.30
2018-07-26T16:58:51.671Z,2.92
2018-07-26T17:01:20.956Z,2.83
2018-07-26T17:03:49.498Z,3.15
2018-07-26T17:06:19.283Z,2.90
2018-07-26T17:08:53.219Z,2.75
2018-07-26T17:11:23.666Z,2.98
2018-07-26T17:13:52.440Z,3.50
2018-07-26T17:16:21.254Z,3.05
2018-07-26T17:18:50.976Z,3.17
2018-07-26T17:21:19.913Z,2.85
2018-07-26T17:23:50.102Z,3.60
2018-07-26T17:26:19.221Z,3.12
2018-07-26T17:28:49.052Z,3.10
2018-07-26T17:31:18.029Z,3.10
2018-07-26T17:33:51.624Z,3.15
2018-07-26T17:36:20.850Z,3.25
2018-07-26T17:38:49.406Z,3.22
2018-07-26T17:41:19.051Z,3.25
2018-07-26T17:43:48.397Z,3.00
2018-07-26T17:46:17.313Z,3.08
2018-07-26T17:48:49.924Z,3.10
2018-07-26T17:51:19.715Z,3.15
2018-07-26T17:53:48.931Z,2.90
2018-07-26T17:56:19.204Z,2.55
2018-07-26T17:58:48.281Z,3.33
2018-07-26T18:01:17.198Z,3.08
2018-07-26T18:03:46.860Z,2.90
2018-07-26T18:06:15.768Z,3.10
2018-07-26T18:08:44.888Z,3.20
2018-07-26T18:11:14.400Z,2.90
2018-07-26T18:13:43.523Z,3.20
2018-07-26T18:16:12.702Z,3.20
2018-07-26T18:18:42.287Z,2.80
2018-07-26T18:21:11.518Z,3.15
2018-07-26T18:23:40.164Z,3.15
2018-07-26T18:26:09.470Z,3.58
2018-07-26T18:28:38.875Z,3.52
2018-07-26T18:31:07.971Z,3.33
2018-07-26T18:33:38.672Z,3.08
2018-07-26T18:36:08.925Z,3.37
2018-07-26T18:38:38.115Z,3.08
2018-07-26T18:41:07.361Z,3.00
2018-07-26T18:43:37.649Z,3.50
2018-07-26T18:46:06.627Z,3.40
2018-07-26T18:48:35.911Z,3.10
2018-07-26T18:51:04.840Z,3.37
2018-07-26T18:53:33.796Z,3.58
2018-07-26T18:56:02.985Z,2.98
2018-07-26T18:58:35.559Z,3.40
2018-07-26T19:01:04.634Z,3.47
2018-07-26T19:03:33.463Z,3.25
2018-07-26T19:06:02.606Z,2.98
2018-07-26T19:08:31.806Z,3.17
2018-07-26T19:11:01.638Z,3.62
2018-07-26T19:13:30.896Z,3.20
2018-07-26T19:16:00.310Z,3.10
2018-07-26T19:18:28.899Z,3.40
2018-07-26T19:20:58.123Z,3.45
2018-07-26T19:23:26.940Z,3.60
2018-07-26T19:25:55.787Z,3.17
2018-07-26T19:28:24.662Z,3.47
2018-07-26T19:30:54.385Z,3.60
2018-07-26T19:33:24.803Z,3.05
2018-07-26T19:35:53.650Z,2.90
2018-07-26T19:38:23.446Z,3.00
2018-07-26T19:40:52.482Z,3.52
2018-07-26T19:43:21.519Z,2.62
2018-07-26T19:45:51.392Z,3.58
2018-07-26T19:48:20.799Z,3.58
2018-07-26T19:50:49.920Z,3.25
2018-07-26T19:53:19.721Z,3.10
2018-07-26T19:55:48.995Z,3.20
2018-07-26T19:58:17.627Z,3.33
2018-07-26T20:00:46.884Z,3.15
2018-07-26T20:03:15.557Z,3.42
2018-07-26T20:05:44.840Z,3.10
2018-07-26T20:08:13.959Z,3.40
2018-07-26T20:10:43.311Z,3.00
2018-07-26T20:13:12.102Z,3.30
2018-07-26T20:15:41.032Z,3.42
2018-07-26T20:18:11.325Z,3.10
2018-07-26T20:20:40.149Z,3.30
2018-07-26T20:23:09.556Z,3.80
2018-07-26T20:25:45.159Z,3.20
2018-07-26T20:28:14.455Z,3.25
2018-07-26T20:30:43.803Z,3.20
2018-07-26T20:33:12.787Z,3.50
2018-07-26T20:35:41.578Z,3.87
2018-07-26T20:38:10.945Z,3.90
2018-07-26T20:40:39.892Z,3.30
2018-07-26T20:43:09.007Z,3.58
2018-07-26T20:45:37.893Z,3.70
2018-07-26T20:48:06.844Z,3.50
2018-07-26T20:50:36.168Z,3.35
2018-07-26T20:53:04.892Z,3.60
2018-07-26T20:55:34.352Z,3.33
2018-07-26T20:58:04.332Z,3.87
2018-07-26T21:00:33.539Z,3.60
2018-07-26T21:03:02.256Z,3.70
2018-07-26T21:05:30.841Z,3.70
2018-07-26T21:08:00.261Z,3.75
2018-07-26T21:10:29.652Z,4.45
2018-07-26T21:12:58.836Z,4.97
2018-07-26T21:15:27.586Z,3.65
2018-07-26T21:17:56.938Z,3.90
2018-07-26T21:20:26.144Z,4.12
2018-07-26T21:22:55.199Z,4.03
2018-07-26T21:25:25.307Z,4.30
2018-07-26T21:27:54.715Z,3.70
2018-07-26T21:30:23.771Z,4.08
2018-07-26T21:32:52.872Z,4.45
2018-07-26T21:35:21.803Z,4.20
2018-07-26T21:37:50.531Z,4.15
2018-07-26T21:40:19.551Z,4.42
2018-07-26T21:42:49.080Z,4.00
2018-07-26T21:45:18.397Z,4.03
2018-07-26T21:47:47.059Z,3.92
2018-07-26T21:50:16.044Z,4.12
2018-07-26T21:52:45.711Z,4.00
2018-07-26T21:55:14.689Z,4.75
2018-07-26T21:57:43.984Z,4.20
2018-07-26T22:00:13.301Z,3.70
2018-07-26T22:02:42.354Z,4.20
2018-07-26T22:05:11.608Z,4.20
2018-07-26T22:07:41.634Z,4.40
2018-07-26T22:10:10.367Z,4.35
2018-07-26T22:12:40.354Z,4.40
2018-07-26T22:15:09.336Z,4.47
2018-07-26T22:17:38.601Z,4.10
2018-07-26T22:20:08.989Z,4.30
2018-07-26T22:22:38.295Z,4.00
2018-07-26T22:25:07.393Z,4.53
2018-07-26T22:27:36.378Z,4.60
2018-07-26T22:30:05.272Z,4.53
2018-07-26T22:32:34.635Z,4.42
2018-07-26T22:35:04.481Z,4.70
2018-07-26T22:37:33.752Z,4.67
2018-07-26T22:40:02.808Z,4.87
2018-07-26T22:42:31.683Z,4.33
2018-07-26T22:45:01.748Z,4.40
2018-07-26T22:47:30.717Z,5.05
2018-07-26T22:50:00.036Z,4.85
2018-07-26T22:52:28.582Z,4.45
2018-07-26T22:54:58.004Z,5.10
2018-07-26T22:57:27.765Z,4.75
2018-07-26T22:59:57.215Z,5.10
2018-07-26T23:02:26.544Z,4.90
2018-07-26T23:04:56.607Z,5.20
2018-07-26T23:07:27.463Z,4.65
2018-07-26T23:09:57.095Z,4.55
2018-07-26T23:12:26.401Z,4.83
2018-07-26T23:14:55.508Z,5.35
2018-07-26T23:17:25.113Z,5.20
2018-07-26T23:19:54.125Z,4.58
2018-07-26T23:22:23.471Z,5.33
2018-07-26T23:24:56.247Z,5.70
2018-07-26T23:27:26.112Z,5.42
2018-07-26T23:29:56.659Z,5.53
2018-07-26T23:32:25.668Z,5.03
2018-07-26T23:34:54.931Z,5.17
2018-07-26T23:37:23.995Z,5.20
2018-07-26T23:39:56.603Z,5.08
2018-07-26T23:42:26.980Z,4.67
2018-07-26T23:44:55.985Z,5.50
2018-07-26T23:47:25.083Z,5.30
2018-07-26T23:49:54.820Z,5.30
2018-07-26T23:52:23.876Z,6.40
2018-07-26T23:54:53.123Z,5.42
2018-07-26T23:57:23.171Z,5.40
2018-07-26T23:59:52.517Z,5.55
